Decatur, IA (50067)

11:05 AM CST on January 26, 2015 (GMT -0600)
IADOT Leon (I-35)/IA 2) | Change Station
CLOSE
Current Station
Personal Weather Station
Location: Decatur, IA
Elevation: 1145 ft
Nearby Weather Stations

Elev 1145 ft 40.74 °N, 93.84 °W | Updated 44 minutes ago

Overcast
Overcast
38 °F
Feels Like 29 °F
N
17
Wind Variable Wind from WSW
Gusts 26.0 mph

Today
High -- | Low -- °F
--% Chance of Precip.
Yesterday
High -- | Low -- °F
Precip. -- in
7:30 AM 5:25 PM
Waxing Crescent, 45% visible
Pressure 29.91 in
Visibility 10.0 miles
Clouds Clear
Windchill 29 °F
Dew Point 29 °F
Humidity 70%
Rainfall -999.00 in
Snow Depth Not available.
UV 2 out of 12
Pollen .10 out of 12
Air Quality Not available.
Flu Activity Not available.
METAR KLWD 261653Z AUTO 27012G22KT 10SM CLR 04/M01 A2987 RMK AO2 PRESRR SLP126 T00441006

More Conditions Fewer Conditions

Pressure 29.91 in
Visibility 10.0 miles
Clouds Clear
Windchill 29 °F
Dew Point 29 °F
Humidity 70%
Rainfall -999.00 in
Snow Depth Not available.
UV 2 out of 12
Pollen .10 out of 12
Air Quality Not available.
Flu Activity Not available.
METAR KLWD 261653Z AUTO 27012G22KT 10SM CLR 04/M01 A2987 RMK AO2 PRESRR SLP126 T00441006

More Conditions Fewer Conditions

10-Day Weather Forecast

Almanac

Astronomy

Jan. 26, 2015 Rise Set
Actual Time
Civil Twilight
Nautical Twilight
Astronomical Twilight
Moon
Length of Visible Light
Length of Day
Tomorrow will be .
, % of the Moon is Illuminated

Today's Extremes

State Highs State Lows

Community

WunderPhotos

Upload Photos

1,790,298 photos uploaded!

WunderBlogs® & News

Nearby

Air Quality

  Air Quality AQ Index Pollutant
Not available.

Snow Depth

Station Depth Elevation

Earthquake Activity

City Distance Mag. Time & Date
Minimum magnitude displayed is 2.5.

Coastal Water Temperatures

Place Temperature

Nearby Weather Stations